createdAt,value
2018-12-31T00:09:46.098Z,15.10
2018-12-31T00:12:14.292Z,16.90
2018-12-31T00:14:42.505Z,20.93
2018-12-31T00:29:41.930Z,14.93
2018-12-31T00:32:10.101Z,10.57
2018-12-31T00:34:38.336Z,15.13
2018-12-31T00:37:06.770Z,13.07
2018-12-31T00:51:45.355Z,13.97
2018-12-31T00:54:13.782Z,7.43
2018-12-31T00:56:42.242Z,8.30
2018-12-31T01:11:21.818Z,14.33
2018-12-31T01:13:50.258Z,12.03
2018-12-31T01:16:18.464Z,13.67
2018-12-31T01:31:09.969Z,11.67
2018-12-31T01:33:38.173Z,9.60
2018-12-31T01:36:06.401Z,10.50
2018-12-31T01:38:34.576Z,11.43
2018-12-31T01:50:05.467Z,13.13
2018-12-31T01:52:34.133Z,13.93
2018-12-31T01:55:02.327Z,8.70
2018-12-31T01:57:30.552Z,8.83
2018-12-31T02:07:56.741Z,10.70
2018-12-31T02:10:24.908Z,8.73
2018-12-31T02:12:53.116Z,12.43
2018-12-31T02:22:03.532Z,11.50
2018-12-31T02:24:31.707Z,12.17
2018-12-31T02:26:59.912Z,7.87
2018-12-31T02:29:28.087Z,9.47
2018-12-31T02:31:56.302Z,10.10
2018-12-31T02:34:24.471Z,9.93
2018-12-31T02:36:52.685Z,11.33
2018-12-31T02:39:20.857Z,16.63
2018-12-31T02:41:49.073Z,10.40
2018-12-31T02:44:17.276Z,13.47
2018-12-31T02:46:45.520Z,12.13
2018-12-31T02:49:13.984Z,12.03
2018-12-31T02:51:42.156Z,13.73
2018-12-31T02:54:10.363Z,10.50
2018-12-31T02:56:38.538Z,10.03
2018-12-31T02:59:06.742Z,9.30
2018-12-31T03:01:34.921Z,11.20
2018-12-31T03:04:03.129Z,10.10
2018-12-31T03:06:31.298Z,12.33
2018-12-31T03:08:59.511Z,9.37
2018-12-31T03:11:27.686Z,13.07
2018-12-31T03:13:55.894Z,8.10
2018-12-31T03:16:24.067Z,12.53
2018-12-31T03:18:52.281Z,11.83
2018-12-31T03:21:20.454Z,11.63
2018-12-31T03:23:48.666Z,15.30
2018-12-31T03:26:16.839Z,15.00
2018-12-31T03:28:45.062Z,10.50
2018-12-31T03:31:13.238Z,10.50
2018-12-31T03:33:41.451Z,16.10
2018-12-31T03:36:09.626Z,15.03
2018-12-31T03:38:37.847Z,14.07
2018-12-31T03:41:06.023Z,12.13
2018-12-31T03:43:34.194Z,14.00
2018-12-31T03:46:02.401Z,11.07
2018-12-31T03:48:30.566Z,15.57
2018-12-31T03:50:58.776Z,15.53
2018-12-31T03:53:26.949Z,12.77
2018-12-31T03:55:55.169Z,15.90
2018-12-31T03:58:23.577Z,16.17
2018-12-31T04:00:52.086Z,15.87
2018-12-31T04:03:20.263Z,13.20
2018-12-31T04:05:48.465Z,13.10
2018-12-31T04:08:16.642Z,19.73
2018-12-31T04:10:44.848Z,15.23
2018-12-31T04:13:13.257Z,18.30
2018-12-31T04:15:41.462Z,15.53
2018-12-31T04:18:09.630Z,17.90
2018-12-31T04:20:37.864Z,14.20
2018-12-31T04:23:06.018Z,16.77
2018-12-31T04:25:34.226Z,12.30
2018-12-31T04:28:02.401Z,16.20
2018-12-31T04:30:30.606Z,13.47
2018-12-31T04:32:59.014Z,15.07
2018-12-31T04:35:27.226Z,14.43
2018-12-31T04:37:55.634Z,17.47
2018-12-31T04:40:23.839Z,21.80
2018-12-31T04:42:52.013Z,19.23
2018-12-31T04:45:20.233Z,13.20
2018-12-31T04:47:48.412Z,15.67
2018-12-31T04:50:16.818Z,19.47
2018-12-31T04:52:45.023Z,20.00
2018-12-31T04:55:13.441Z,16.23
2018-12-31T04:57:41.637Z,15.30
2018-12-31T05:00:09.809Z,16.57
2018-12-31T05:02:38.016Z,15.37
2018-12-31T05:05:06.193Z,16.27
2018-12-31T05:07:34.401Z,20.83
2018-12-31T05:10:02.588Z,16.90
2018-12-31T05:12:30.790Z,20.77
2018-12-31T05:14:58.961Z,13.77
2018-12-31T05:17:27.178Z,23.23
2018-12-31T05:19:55.352Z,20.10
2018-12-31T05:22:23.566Z,22.10
2018-12-31T05:24:51.741Z,18.57
2018-12-31T05:27:19.964Z,23.53
2018-12-31T05:29:48.135Z,24.60
2018-12-31T05:32:16.356Z,21.43
2018-12-31T05:34:44.547Z,21.17
2018-12-31T05:37:12.755Z,31.57
2018-12-31T05:39:40.935Z,17.50
2018-12-31T05:42:09.141Z,25.40
2018-12-31T05:44:37.309Z,22.30
2018-12-31T05:47:05.522Z,20.07
2018-12-31T05:49:33.693Z,21.00
2018-12-31T05:52:02.154Z,19.47
2018-12-31T05:54:30.329Z,18.77
2018-12-31T05:56:58.502Z,24.03
2018-12-31T05:59:26.727Z,13.13
2018-12-31T06:01:54.893Z,16.17
2018-12-31T06:04:23.106Z,25.00
2018-12-31T06:06:51.514Z,21.07
2018-12-31T06:09:19.723Z,24.77
2018-12-31T06:11:47.897Z,19.33
2018-12-31T06:14:16.113Z,20.07
2018-12-31T06:16:44.526Z,20.03
2018-12-31T06:19:12.735Z,22.13
2018-12-31T06:21:40.918Z,20.63
2018-12-31T06:24:10.544Z,15.83
2018-12-31T06:26:38.906Z,24.87
2018-12-31T06:29:07.118Z,23.47
2018-12-31T06:31:35.293Z,27.13
2018-12-31T06:34:03.508Z,22.30
2018-12-31T06:36:31.685Z,26.33
2018-12-31T06:38:59.897Z,24.23
2018-12-31T06:41:28.078Z,24.33
2018-12-31T06:43:56.528Z,23.83
2018-12-31T06:46:24.938Z,32.23
2018-12-31T06:48:53.382Z,23.20
2018-12-31T06:51:21.793Z,26.37
2018-12-31T06:53:50.262Z,25.57
2018-12-31T06:56:25.918Z,29.80
2018-12-31T06:58:54.363Z,24.07
2018-12-31T07:01:22.775Z,27.03
2018-12-31T07:03:50.947Z,23.33
2018-12-31T07:06:19.164Z,23.87
2018-12-31T07:08:47.345Z,22.50
2018-12-31T07:11:15.561Z,20.37
2018-12-31T07:13:43.737Z,25.30
2018-12-31T07:16:11.944Z,25.70
2018-12-31T07:18:40.125Z,26.43
2018-12-31T07:21:08.337Z,21.53
2018-12-31T07:23:36.517Z,25.80
2018-12-31T07:26:05.030Z,22.93
2018-12-31T07:28:33.203Z,21.90
2018-12-31T07:31:01.421Z,20.60
2018-12-31T07:33:29.589Z,20.27
2018-12-31T07:35:57.805Z,21.93
2018-12-31T07:38:25.981Z,19.90
2018-12-31T07:40:54.192Z,24.57
2018-12-31T07:43:22.361Z,23.20
2018-12-31T07:45:50.569Z,24.43
2018-12-31T07:48:18.741Z,24.70
2018-12-31T07:50:46.962Z,25.47
2018-12-31T07:53:15.135Z,25.80
2018-12-31T07:55:43.344Z,23.90
2018-12-31T07:58:11.513Z,21.33
2018-12-31T08:00:39.725Z,23.80
2018-12-31T08:03:07.892Z,12.47
2018-12-31T08:05:38.674Z,25.07
2018-12-31T08:08:06.856Z,24.33
2018-12-31T08:10:35.170Z,17.73
2018-12-31T08:13:03.349Z,21.53
2018-12-31T08:15:31.874Z,22.27
2018-12-31T08:18:00.065Z,10.00
2018-12-31T08:20:28.243Z,20.33
2018-12-31T08:22:56.725Z,25.60
2018-12-31T08:25:24.883Z,22.63
2018-12-31T08:27:54.714Z,8.37
2018-12-31T08:30:22.950Z,21.10
2018-12-31T08:32:51.163Z,24.90
2018-12-31T08:35:19.337Z,15.23
2018-12-31T08:37:54.425Z,14.63
2018-12-31T08:40:23.307Z,24.97
2018-12-31T08:42:51.609Z,24.80
2018-12-31T08:53:52.734Z,19.57
2018-12-31T08:56:58.160Z,14.97
2018-12-31T08:59:26.332Z,15.27
2018-12-31T09:01:54.550Z,22.37
2018-12-31T09:04:22.729Z,30.00
2018-12-31T09:15:47.425Z,23.10
2018-12-31T09:18:15.629Z,23.57
2018-12-31T09:20:43.806Z,30.83
2018-12-31T09:23:12.017Z,23.47
2018-12-31T09:29:04.884Z,25.17
2018-12-31T09:37:17.580Z,13.93
2018-12-31T09:39:45.797Z,28.97
2018-12-31T09:51:56.619Z,17.17
2018-12-31T09:54:24.821Z,21.43
2018-12-31T09:56:53.003Z,24.07
2018-12-31T09:59:21.210Z,26.60
2018-12-31T10:01:49.387Z,57.33
2018-12-31T10:04:17.600Z,18.57
2018-12-31T10:06:45.768Z,18.67
2018-12-31T10:09:13.977Z,15.20
2018-12-31T10:11:42.154Z,25.93
2018-12-31T10:14:10.366Z,19.03
2018-12-31T10:16:38.536Z,21.87
2018-12-31T10:19:06.742Z,23.37
2018-12-31T10:21:40.978Z,22.63
2018-12-31T10:24:04.769Z,19.40
2018-12-31T10:26:32.941Z,23.80
2018-12-31T10:29:01.150Z,25.47
2018-12-31T10:31:29.333Z,19.80
2018-12-31T10:33:57.501Z,27.97
2018-12-31T10:36:25.709Z,18.40
2018-12-31T10:38:53.881Z,24.70
2018-12-31T10:41:22.094Z,22.20
2018-12-31T10:43:50.263Z,15.73
2018-12-31T10:46:18.469Z,23.17
2018-12-31T10:48:46.636Z,26.70
2018-12-31T10:51:15.085Z,29.10
2018-12-31T10:53:43.494Z,20.53
2018-12-31T10:56:11.936Z,13.27
2018-12-31T10:58:40.108Z,20.07
2018-12-31T11:01:08.318Z,22.00
2018-12-31T11:03:36.490Z,20.27
2018-12-31T11:06:04.694Z,18.33
2018-12-31T11:08:32.866Z,16.33
2018-12-31T11:11:01.075Z,19.63
2018-12-31T11:13:29.246Z,19.87
2018-12-31T11:15:57.457Z,23.27
2018-12-31T11:18:25.866Z,23.40
2018-12-31T11:20:54.074Z,28.00
2018-12-31T11:23:22.246Z,18.53
2018-12-31T11:25:50.456Z,21.83
2018-12-31T11:28:18.628Z,20.33
2018-12-31T11:30:46.836Z,18.07
2018-12-31T11:33:15.006Z,22.53
2018-12-31T11:35:43.220Z,25.40
2018-12-31T11:38:11.393Z,30.20
2018-12-31T11:40:39.604Z,22.57
2018-12-31T11:43:08.014Z,23.27
2018-12-31T11:45:36.457Z,23.60
2018-12-31T11:48:04.868Z,18.70
2018-12-31T11:50:33.322Z,21.63
2018-12-31T11:53:01.492Z,21.43
2018-12-31T11:55:29.664Z,23.20
2018-12-31T11:57:57.873Z,26.07
2018-12-31T12:00:26.045Z,15.83
2018-12-31T12:02:54.485Z,24.03
2018-12-31T12:05:22.661Z,31.63
2018-12-31T12:07:50.868Z,21.77
2018-12-31T12:10:19.041Z,22.60
2018-12-31T12:12:47.243Z,21.30
2018-12-31T12:15:15.417Z,16.60
2018-12-31T12:17:43.870Z,19.33
2018-12-31T12:20:12.546Z,32.20
2018-12-31T12:22:40.749Z,25.80
2018-12-31T12:25:08.923Z,21.90
2018-12-31T12:27:37.136Z,14.27
2018-12-31T12:30:07.982Z,18.50
2018-12-31T12:32:36.433Z,16.23
2018-12-31T12:35:04.971Z,11.30
2018-12-31T12:37:33.186Z,15.47
2018-12-31T12:40:01.386Z,16.40
2018-12-31T12:42:29.793Z,17.93
2018-12-31T12:44:57.966Z,16.53
2018-12-31T12:47:26.178Z,16.37
2018-12-31T12:49:54.340Z,20.87
2018-12-31T12:52:22.552Z,15.33
2018-12-31T12:54:50.720Z,23.50
2018-12-31T12:57:18.927Z,15.37
2018-12-31T12:59:47.299Z,21.60
2018-12-31T13:02:15.517Z,17.17
2018-12-31T13:04:43.680Z,17.03
2018-12-31T13:07:11.890Z,13.23
2018-12-31T13:09:40.068Z,18.40
2018-12-31T13:12:08.538Z,18.30
2018-12-31T13:14:36.748Z,25.00
2018-12-31T13:17:04.929Z,25.97
2018-12-31T13:19:33.135Z,28.67
2018-12-31T13:22:01.308Z,25.80
2018-12-31T13:24:29.520Z,23.63
2018-12-31T13:26:57.698Z,21.57
2018-12-31T13:29:25.905Z,16.07
2018-12-31T13:31:54.083Z,18.07
2018-12-31T13:34:22.525Z,16.90
2018-12-31T13:36:50.934Z,20.27
2018-12-31T13:39:19.137Z,21.20
2018-12-31T13:41:47.551Z,17.47
2018-12-31T13:44:15.998Z,16.33
2018-12-31T13:46:44.404Z,19.53
2018-12-31T13:49:12.854Z,16.10
2018-12-31T13:51:41.023Z,17.67
2018-12-31T13:54:09.234Z,21.27
2018-12-31T13:56:37.641Z,18.03
2018-12-31T13:59:06.085Z,16.23
2018-12-31T14:01:34.493Z,17.57
2018-12-31T14:04:03.141Z,18.37
2018-12-31T14:06:31.549Z,16.47
2018-12-31T14:08:59.830Z,17.47
2018-12-31T14:11:28.240Z,17.67
2018-12-31T14:13:56.685Z,18.03
2018-12-31T14:16:25.157Z,18.57
2018-12-31T14:18:53.869Z,19.53
2018-12-31T14:21:22.280Z,20.47
2018-12-31T14:23:50.451Z,23.63
2018-12-31T14:26:18.889Z,22.40
2018-12-31T14:28:47.702Z,20.03
2018-12-31T14:31:16.146Z,16.80
2018-12-31T14:33:44.562Z,26.30
2018-12-31T14:36:12.768Z,21.37
2018-12-31T14:38:40.944Z,17.60
2018-12-31T14:41:09.149Z,17.17
2018-12-31T14:43:37.564Z,17.50
2018-12-31T14:46:06.010Z,17.23
2018-12-31T14:48:34.183Z,17.80
2018-12-31T14:51:02.392Z,20.90
2018-12-31T14:53:30.565Z,15.70
2018-12-31T14:55:59.015Z,16.83
2018-12-31T14:58:27.422Z,19.97
2018-12-31T15:00:55.873Z,23.13
2018-12-31T15:03:25.647Z,21.33
2018-12-31T15:05:53.957Z,17.90
2018-12-31T15:08:22.427Z,21.07
2018-12-31T15:10:50.645Z,17.13
2018-12-31T15:13:19.054Z,13.17
2018-12-31T15:15:47.257Z,14.40
2018-12-31T15:18:15.738Z,13.73
2018-12-31T15:20:46.070Z,12.90
2018-12-31T15:23:14.317Z,15.07
2018-12-31T15:25:42.524Z,18.20
2018-12-31T15:28:10.705Z,14.40
2018-12-31T15:30:39.109Z,97.57
2018-12-31T15:33:07.858Z,20.20
2018-12-31T15:35:36.274Z,17.77
2018-12-31T15:38:04.715Z,17.97
2018-12-31T15:40:33.133Z,16.37
2018-12-31T15:43:01.578Z,14.97
2018-12-31T15:45:29.751Z,17.77
2018-12-31T15:47:58.311Z,16.17
2018-12-31T15:50:26.704Z,19.77
2018-12-31T15:52:55.149Z,17.90
2018-12-31T15:55:23.322Z,14.43
2018-12-31T15:57:51.838Z,16.13
2018-12-31T16:00:20.440Z,12.90
2018-12-31T16:02:48.659Z,20.77
2018-12-31T16:05:16.845Z,27.47
2018-12-31T16:07:46.116Z,33.80
2018-12-31T16:10:14.698Z,30.80
2018-12-31T16:12:43.548Z,34.23
2018-12-31T16:15:11.956Z,29.50
2018-12-31T16:17:40.405Z,28.47
2018-12-31T16:20:08.573Z,30.40
2018-12-31T16:22:36.789Z,33.73
2018-12-31T16:25:05.203Z,20.73
2018-12-31T16:27:33.654Z,22.83
2018-12-31T16:30:02.067Z,20.60
2018-12-31T16:32:30.277Z,18.90
2018-12-31T16:34:58.453Z,12.17
2018-12-31T16:37:26.669Z,14.53
2018-12-31T16:39:54.845Z,16.30
2018-12-31T16:42:23.058Z,12.20
2018-12-31T16:44:51.232Z,16.27
2018-12-31T16:47:19.761Z,17.50
2018-12-31T16:49:47.953Z,14.57
2018-12-31T16:52:16.465Z,19.27
2018-12-31T16:54:44.667Z,14.00
2018-12-31T16:57:12.849Z,16.00
2018-12-31T16:59:41.053Z,13.00
2018-12-31T17:02:09.462Z,18.43
2018-12-31T17:04:37.669Z,15.73
2018-12-31T17:07:05.852Z,22.93
2018-12-31T17:09:34.066Z,18.73
2018-12-31T17:12:02.240Z,24.63
2018-12-31T17:14:30.689Z,21.93
2018-12-31T17:16:59.106Z,22.60
2018-12-31T17:19:27.959Z,23.10
2018-12-31T17:21:56.133Z,19.40
2018-12-31T17:24:24.588Z,15.40
2018-12-31T17:26:53.017Z,12.50
2018-12-31T17:29:21.230Z,17.70
2018-12-31T17:31:49.482Z,18.53
2018-12-31T17:34:17.929Z,22.57
2018-12-31T17:36:46.105Z,17.43
2018-12-31T17:39:18.188Z,18.13
2018-12-31T17:41:46.361Z,18.07
2018-12-31T17:44:14.577Z,21.30
2018-12-31T17:46:42.757Z,17.67
2018-12-31T17:49:10.960Z,21.30
2018-12-31T17:51:39.138Z,13.77
2018-12-31T17:54:07.352Z,17.33
2018-12-31T17:56:35.758Z,14.70
2018-12-31T17:59:05.007Z,19.17
2018-12-31T18:01:33.193Z,20.07
2018-12-31T18:04:01.410Z,17.70
2018-12-31T18:06:29.595Z,19.50
2018-12-31T18:08:57.805Z,30.57
2018-12-31T18:11:26.387Z,42.30
2018-12-31T18:13:54.561Z,100.27
2018-12-31T18:16:30.375Z,61.93
2018-12-31T18:18:59.353Z,32.20
2018-12-31T18:21:27.557Z,21.27
2018-12-31T18:23:56.620Z,23.70
2018-12-31T18:26:30.291Z,21.27
2018-12-31T18:28:58.685Z,18.17
2018-12-31T18:31:27.720Z,21.20
2018-12-31T18:33:56.260Z,18.37
2018-12-31T18:36:29.556Z,14.33
2018-12-31T18:39:09.442Z,19.37
2018-12-31T18:42:05.700Z,17.43
2018-12-31T18:44:33.825Z,24.97
2018-12-31T18:47:02.036Z,25.63
2018-12-31T18:49:30.469Z,25.70
2018-12-31T18:51:58.900Z,24.60
2018-12-31T18:54:27.371Z,31.93
2018-12-31T18:56:55.585Z,28.27
2018-12-31T18:59:24.302Z,23.87
2018-12-31T19:01:52.504Z,28.30
2018-12-31T19:04:20.917Z,23.97
2018-12-31T19:06:49.766Z,23.27
2018-12-31T19:09:17.953Z,30.67
2018-12-31T19:11:46.398Z,25.97
2018-12-31T19:14:14.806Z,31.13
2018-12-31T19:16:43.018Z,32.50
2018-12-31T19:19:11.190Z,24.17
2018-12-31T19:21:39.408Z,20.27
2018-12-31T19:24:07.580Z,27.57
2018-12-31T19:26:35.762Z,28.07
2018-12-31T19:29:03.988Z,28.80
2018-12-31T19:31:32.160Z,35.10
2018-12-31T19:34:00.676Z,30.97
2018-12-31T19:36:28.848Z,25.03
2018-12-31T19:38:57.305Z,22.60
2018-12-31T19:41:25.721Z,24.27
2018-12-31T19:43:53.932Z,22.87
2018-12-31T19:46:22.354Z,27.77
2018-12-31T19:48:50.796Z,25.67
2018-12-31T19:51:19.282Z,20.17
2018-12-31T20:30:32.412Z,31.73
2018-12-31T20:33:01.033Z,32.97
2018-12-31T20:35:29.478Z,39.10
2018-12-31T20:37:57.660Z,28.57
2018-12-31T20:40:26.109Z,38.67
2018-12-31T20:42:54.565Z,30.07
2018-12-31T20:45:22.742Z,32.63
2018-12-31T20:47:51.191Z,34.63
2018-12-31T20:50:19.668Z,40.47
2018-12-31T20:52:47.847Z,40.10
2018-12-31T20:55:16.297Z,26.73
2018-12-31T20:57:44.472Z,28.57
2018-12-31T21:00:12.691Z,30.80
2018-12-31T21:02:41.094Z,29.03
2018-12-31T21:05:11.414Z,31.00
2018-12-31T21:07:39.374Z,28.20
2018-12-31T21:10:10.927Z,27.10
2018-12-31T21:12:40.273Z,33.60
2018-12-31T21:15:08.616Z,31.83
2018-12-31T21:17:37.024Z,34.27
2018-12-31T21:20:07.714Z,34.67
2018-12-31T21:22:35.893Z,38.13
2018-12-31T21:25:04.275Z,31.53
2018-12-31T21:27:32.686Z,38.00
2018-12-31T21:30:01.202Z,38.40
2018-12-31T21:32:29.622Z,39.77
2018-12-31T21:34:58.073Z,37.87
2018-12-31T21:37:26.558Z,31.40
2018-12-31T21:39:55.037Z,34.87
2018-12-31T21:42:23.445Z,31.03
2018-12-31T21:44:51.894Z,40.47
2018-12-31T21:47:20.308Z,40.90
2018-12-31T21:49:48.516Z,27.73
2018-12-31T21:52:16.932Z,35.03
2018-12-31T21:54:45.674Z,37.27
2018-12-31T21:57:14.083Z,31.27
2018-12-31T21:59:42.296Z,29.13
2018-12-31T22:08:38.394Z,32.47
2018-12-31T22:11:25.004Z,30.70
2018-12-31T22:13:53.418Z,34.17
2018-12-31T22:16:23.190Z,37.90
2018-12-31T22:18:51.606Z,38.43
2018-12-31T22:21:19.818Z,31.77
2018-12-31T22:23:48.225Z,27.67
2018-12-31T22:26:16.677Z,33.93
2018-12-31T22:28:45.185Z,31.70
2018-12-31T22:31:13.641Z,49.00
2018-12-31T22:33:43.749Z,34.97
2018-12-31T22:36:11.957Z,27.83
2018-12-31T22:38:41.431Z,25.90
2018-12-31T22:41:09.989Z,32.93
2018-12-31T22:43:38.398Z,32.60
2018-12-31T22:46:06.839Z,33.17
2018-12-31T22:48:38.431Z,26.87
2018-12-31T22:51:06.872Z,36.00
2018-12-31T22:53:35.877Z,32.90
2018-12-31T22:56:04.324Z,44.13
2018-12-31T22:58:32.733Z,99.87
2018-12-31T23:01:01.268Z,94.20
2018-12-31T23:03:29.465Z,82.90
2018-12-31T23:05:57.972Z,277.83
2018-12-31T23:08:26.184Z,422.53
2018-12-31T23:10:56.265Z,414.00
2018-12-31T23:13:26.394Z,355.07
2018-12-31T23:15:54.870Z,277.53
2018-12-31T23:18:23.296Z,256.40
2018-12-31T23:20:55.446Z,199.40
2018-12-31T23:23:27.682Z,146.53
2018-12-31T23:25:58.116Z,191.23
2018-12-31T23:28:28.333Z,133.07
2018-12-31T23:31:01.487Z,79.33
2018-12-31T23:33:30.397Z,86.70
2018-12-31T23:36:03.868Z,79.63
2018-12-31T23:44:22.484Z,186.13
2018-12-31T23:49:39.621Z,133.63
2018-12-31T23:52:16.373Z,118.17
2018-12-31T23:54:52.133Z,98.23
2018-12-31T23:57:23.221Z,81.67
2018-12-31T23:59:51.850Z,79.17
